Time;durP1;ratioP1;P1;durP2;ratioP2;P2;SDS_P1;SDS_P2;PMS_P1;PMS_P2;Temp;Humidity;BMP_temperature;BMP_pressure;BME280_temperature;BME280_humidity;BME280_pressure;Samples;Min_cycle;Max_cycle;Signal;HPM_P1;HPM_P2
2023/02/22 00:00:47;;;;;;;16.00;12.52;;;22.30;38.70;;;;;;5052578;28;20471;-62
2023/02/22 00:03:23;;;;;;;18.45;13.88;;;22.30;38.70;;;;;;5052865;28;20041;-62
2023/02/22 00:05:57;;;;;;;14.65;11.75;;;22.20;38.60;;;;;;5051532;28;20111;-62
2023/02/22 00:08:29;;;;;;;17.83;13.43;;;22.30;38.70;;;;;;5052235;28;20428;-62
2023/02/22 00:10:58;;;;;;;16.08;12.52;;;22.20;38.60;;;;;;5052767;28;20053;-62
2023/02/22 00:13:27;;;;;;;16.88;12.90;;;22.20;38.60;;;;;;5052615;28;20049;-62
2023/02/22 00:15:56;;;;;;;18.25;14.23;;;22.20;38.60;;;;;;5052535;28;20053;-62
2023/02/22 00:18:26;;;;;;;18.10;13.90;;;22.20;38.60;;;;;;5052199;28;20080;-62
2023/02/22 00:20:54;;;;;;;;;;;22.20;38.60;;;;;;5052833;28;20427;-62
2023/02/22 00:23:22;;;;;;;19.00;13.82;;;22.20;38.60;;;;;;5052576;28;20015;-62
2023/02/22 00:25:50;;;;;;;17.30;12.80;;;22.20;38.60;;;;;;5056985;28;20396;-62
2023/02/22 00:28:17;;;;;;;17.70;13.18;;;22.20;38.60;;;;;;5056130;28;20128;-62
2023/02/22 00:30:47;;;;;;;16.45;12.75;;;22.20;38.60;;;;;;5056945;28;20450;-62
2023/02/22 00:33:15;;;;;;;17.13;13.27;;;22.20;38.60;;;;;;5056697;28;20077;-62
2023/02/22 00:35:47;;;;;;;16.17;12.68;;;22.10;38.60;;;;;;5056288;28;20084;-62
2023/02/22 00:38:17;;;;;;;15.98;12.10;;;22.10;38.50;;;;;;5056590;28;20577;-62
2023/02/22 00:40:44;;;;;;;17.58;13.20;;;22.20;38.60;;;;;;5055017;28;20475;-62
2023/02/22 00:43:12;;;;;;;15.15;12.60;;;22.10;38.50;;;;;;5055422;28;20056;-62
2023/02/22 00:45:39;;;;;;;15.98;12.00;;;22.10;38.50;;;;;;5056447;28;20474;-62
2023/02/22 00:48:07;;;;;;;16.30;12.23;;;22.10;38.50;;;;;;5055765;28;20387;-62
2023/02/22 00:50:35;;;;;;;15.57;12.48;;;22.10;38.50;;;;;;5055564;28;20504;-62
2023/02/22 00:53:03;;;;;;;16.50;12.15;;;22.10;38.50;;;;;;5056227;28;20055;-62
2023/02/22 00:55:33;;;;;;;16.35;11.25;;;22.10;38.50;;;;;;5054931;28;20416;-62
2023/02/22 00:58:01;;;;;;;15.30;11.38;;;22.10;38.50;;;;;;5053620;28;20595;-62
2023/02/22 01:00:31;;;;;;;16.02;11.95;;;22.10;38.50;;;;;;5055478;28;20057;-62
2023/02/22 01:02:58;;;;;;;;;;;22.10;38.50;;;;;;5055217;28;20045;-62
2023/02/22 01:05:28;;;;;;;15.23;11.57;;;22.10;38.50;;;;;;5054962;28;19970;-62
2023/02/22 01:07:57;;;;;;;15.95;11.65;;;22.10;38.50;;;;;;5055481;28;20049;-62
2023/02/22 01:10:26;;;;;;;17.40;11.82;;;22.10;38.50;;;;;;5055276;28;20076;-62
2023/02/22 01:12:54;;;;;;;16.05;11.85;;;22.10;38.50;;;;;;5054371;28;20132;-62
2023/02/22 01:15:26;;;;;;;16.00;11.43;;;22.10;38.50;;;;;;5054103;28;20047;-62
2023/02/22 01:17:53;;;;;;;14.15;10.63;;;22.10;38.50;;;;;;5055268;28;20060;-62
2023/02/22 01:20:21;;;;;;;14.32;11.90;;;22.10;38.50;;;;;;5053893;28;20496;-62
2023/02/22 01:22:52;;;;;;;16.13;11.73;;;22.10;38.50;;;;;;5054144;28;20563;-62
2023/02/22 01:25:22;;;;;;;15.43;11.75;;;22.00;38.40;;;;;;5054627;28;20049;-62
2023/02/22 01:27:51;;;;;;;14.77;11.50;;;22.00;38.50;;;;;;5055550;28;20412;-61
2023/02/22 01:30:23;;;;;;;14.90;11.07;;;22.00;38.40;;;;;;5054152;28;20449;-63
2023/02/22 01:32:51;;;;;;;12.73;10.88;;;22.00;38.40;;;;;;5055391;28;20051;-62
2023/02/22 01:35:22;;;;;;;15.93;11.65;;;22.00;38.40;;;;;;5053422;28;20509;-63
2023/02/22 01:37:50;;;;;;;14.95;11.80;;;22.00;38.40;;;;;;5055102;28;20059;-62
2023/02/22 01:40:27;;;;;;;14.35;11.02;;;22.00;38.40;;;;;;5053306;28;20045;-61
2023/02/22 01:42:57;;;;;;;15.75;11.48;;;22.10;38.40;;;;;;5054187;28;20059;-61
2023/02/22 01:45:43;;;;;;;15.10;11.65;;;22.00;38.40;;;;;;5054220;28;20081;-62
2023/02/22 01:48:38;;;;;;;15.23;11.32;;;22.00;38.30;;;;;;5054534;28;20076;-62
2023/02/22 01:51:16;;;;;;;16.42;11.90;;;22.00;38.30;;;;;;5054203;28;20128;-62
2023/02/22 01:54:07;;;;;;;14.68;10.88;;;22.00;38.30;;;;;;5052817;28;20099;-62
2023/02/22 01:56:38;;;;;;;14.75;11.60;;;22.00;38.30;;;;;;5053824;28;20478;-62
2023/02/22 01:59:09;;;;;;;16.30;12.07;;;22.00;38.20;;;;;;5053263;28;20052;-61
2023/02/22 02:01:38;;;;;;;13.15;10.30;;;22.00;38.30;;;;;;5054568;28;20481;-62
2023/02/22 02:04:11;;;;;;;15.60;11.15;;;22.00;38.20;;;;;;5052564;28;20045;-62
2023/02/22 02:06:41;;;;;;;15.40;10.88;;;22.00;38.20;;;;;;5053791;28;20045;-62
2023/02/22 02:09:32;;;;;;;16.50;12.15;;;22.00;38.20;;;;;;5053760;28;20102;-62
2023/02/22 02:12:01;;;;;;;13.50;10.65;;;22.00;38.20;;;;;;5052517;28;20382;-62
2023/02/22 02:14:30;;;;;;;12.82;10.70;;;22.00;38.20;;;;;;5054416;28;20398;-62
2023/02/22 02:17:02;;;;;;;14.57;11.10;;;22.00;38.20;;;;;;5053579;28;20555;-62
2023/02/22 02:20:07;;;;;;;12.98;10.70;;;22.00;38.10;;;;;;5051888;28;20049;-62
2023/02/22 02:23:05;;;;;;;16.55;11.68;;;22.00;38.30;;;;;;5054096;28;20119;-62
2023/02/22 02:26:04;;;;;;;14.23;10.55;;;22.00;38.20;;;;;;5053328;28;20049;-62
2023/02/22 02:29:11;;;;;;;13.13;10.50;;;21.90;38.10;;;;;;5052819;28;20120;-62
2023/02/22 02:32:13;;;;;;;15.38;11.35;;;21.90;38.10;;;;;;5054151;28;20124;-62
2023/02/22 02:35:10;;;;;;;13.52;10.70;;;21.90;38.10;;;;;;5052505;28;20438;-63
2023/02/22 02:37:56;;;;;;;14.52;10.48;;;22.00;38.10;;;;;;5053700;28;20049;-62
2023/02/22 02:40:48;;;;;;;12.55;9.77;;;21.90;38.10;;;;;;5051972;28;20056;-62
2023/02/22 02:43:39;;;;;;;14.38;10.02;;;21.90;38.10;;;;;;5053815;28;20045;-62
2023/02/22 02:46:18;;;;;;;10.95;9.48;;;21.90;38.10;;;;;;5053334;28;20056;-62
2023/02/22 02:48:53;;;;;;;13.32;10.20;;;21.90;38.10;;;;;;5052238;28;20076;-62
2023/02/22 02:51:23;;;;;;;14.32;11.05;;;21.90;38.10;;;;;;5050982;28;20067;-62
2023/02/22 02:53:51;;;;;;;14.48;10.60;;;21.90;38.00;;;;;;5052640;28;20573;-62
2023/02/22 02:56:18;;;;;;;12.90;10.18;;;21.90;38.10;;;;;;5052114;28;20136;-62
2023/02/22 02:58:48;;;;;;;13.05;9.43;;;21.90;38.00;;;;;;5051613;28;20048;-62
2023/02/22 03:01:51;;;;;;;14.43;10.25;;;21.90;38.10;;;;;;5052740;28;20079;-62
2023/02/22 03:04:58;;;;;;;11.60;9.15;;;21.90;38.00;;;;;;5053199;28;20382;-62
2023/02/22 03:07:43;;;;;;;12.38;9.48;;;21.90;38.00;;;;;;5052357;28;20507;-62
2023/02/22 03:10:49;;;;;;;11.70;9.32;;;21.90;38.00;;;;;;5052221;28;20087;-62
2023/02/22 03:13:44;;;;;;;12.52;9.32;;;21.90;38.10;;;;;;5051466;28;20045;-62
2023/02/22 03:16:32;;;;;;;12.45;8.93;;;21.90;38.00;;;;;;5052097;28;20045;-62
2023/02/22 03:19:31;;;;;;;13.95;9.32;;;21.80;38.00;;;;;;5050064;28;20051;-62
2023/02/22 03:22:23;;;;;;;11.18;9.10;;;21.80;38.00;;;;;;5049078;28;20089;-62
2023/02/22 03:25:13;;;;;;;12.75;9.40;;;21.80;38.00;;;;;;5052373;28;20484;-62
2023/02/22 03:27:54;;;;;;;11.85;8.88;;;21.80;38.00;;;;;;5051726;28;20052;-62
2023/02/22 03:30:24;;;;;;;;;;;21.80;38.00;;;;;;5052959;28;20056;-62
2023/02/22 03:32:57;;;;;;;12.18;8.93;;;21.80;38.00;;;;;;5052479;28;19982;-62
2023/02/22 03:35:30;;;;;;;11.13;8.75;;;21.80;38.00;;;;;;5031797;28;20056;-62
2023/02/22 03:38:02;;;;;;;11.35;8.98;;;21.80;38.00;;;;;;5032285;28;20050;-62
2023/02/22 03:40:38;;;;;;;12.45;9.07;;;21.80;38.00;;;;;;5044236;28;20136;-62
2023/02/22 03:43:09;;;;;;;9.60;8.45;;;21.80;38.00;;;;;;5051952;28;20055;-62
2023/02/22 03:45:39;;;;;;;12.50;8.68;;;21.80;38.00;;;;;;5052691;28;20049;-62
2023/02/22 03:48:24;;;;;;;11.40;8.85;;;21.80;37.90;;;;;;5052537;28;20607;-62
2023/02/22 03:50:52;;;;;;;11.68;8.45;;;21.80;37.90;;;;;;5052004;28;20451;-62
2023/02/22 03:53:22;;;;;;;12.77;8.80;;;21.80;37.80;;;;;;5052188;28;20131;-62
2023/02/22 03:55:50;;;;;;;12.13;8.70;;;21.80;37.80;;;;;;5051384;28;20405;-62
2023/02/22 03:58:21;;;;;;;10.30;8.27;;;21.80;37.80;;;;;;5050854;28;20052;-62
2023/02/22 04:00:51;;;;;;;10.93;7.78;;;21.80;37.80;;;;;;5050780;28;20045;-62
2023/02/22 04:03:20;;;;;;;13.27;8.68;;;21.80;37.80;;;;;;5052093;28;20056;-62
2023/02/22 04:05:48;;;;;;;11.63;7.57;;;21.80;37.80;;;;;;5051640;28;20570;-62
2023/02/22 04:08:16;;;;;;;11.20;8.55;;;21.80;37.80;;;;;;5051141;28;20076;-62
2023/02/22 04:10:43;;;;;;;9.73;7.65;;;21.80;37.80;;;;;;5052195;28;20053;-62
2023/02/22 04:13:10;;;;;;;10.15;7.72;;;21.80;37.70;;;;;;5051667;28;20504;-62
2023/02/22 04:15:37;;;;;;;11.75;7.53;;;21.80;37.70;;;;;;5051819;28;20176;-62
2023/02/22 04:18:05;;;;;;;10.63;8.10;;;21.80;37.70;;;;;;5051684;28;20055;-62
2023/02/22 04:20:33;;;;;;;10.60;7.93;;;21.80;37.60;;;;;;5050816;28;20041;-62
2023/02/22 04:23:00;;;;;;;9.20;7.80;;;21.80;37.60;;;;;;5052196;28;20049;-62
2023/02/22 04:25:28;;;;;;;9.52;7.50;;;21.80;37.60;;;;;;5052521;28;20053;-64
2023/02/22 04:27:55;;;;;;;11.65;8.10;;;21.80;37.60;;;;;;5052491;28;20048;-62
2023/02/22 04:30:22;;;;;;;8.77;7.13;;;21.80;37.60;;;;;;5052048;28;20052;-62
2023/02/22 04:32:50;;;;;;;9.90;7.40;;;21.80;37.60;;;;;;5051772;28;20489;-62
2023/02/22 04:35:17;;;;;;;11.82;7.75;;;21.80;37.60;;;;;;5051031;28;20120;-62
2023/02/22 04:37:44;;;;;;;10.25;7.45;;;21.80;37.60;;;;;;5052262;28;20055;-62
2023/02/22 04:40:11;;;;;;;9.15;7.28;;;21.80;37.60;;;;;;5051407;28;20400;-62
2023/02/22 04:42:39;;;;;;;9.65;7.38;;;21.80;37.60;;;;;;5049804;28;20143;-62
2023/02/22 04:45:08;;;;;;;9.27;6.80;;;21.80;37.60;;;;;;5049858;28;20132;-62
2023/02/22 04:47:36;;;;;;;9.20;6.88;;;21.80;37.60;;;;;;5051678;28;20053;-62
2023/02/22 04:50:08;;;;;;;9.32;7.20;;;21.70;37.50;;;;;;5051756;28;20048;-62
2023/02/22 04:52:35;;;;;;;9.50;7.25;;;21.70;37.50;;;;;;5051467;28;20141;-62
2023/02/22 04:55:03;;;;;;;9.60;7.30;;;21.70;37.50;;;;;;5050515;28;20067;-62
2023/02/22 04:57:30;;;;;;;8.50;6.93;;;21.70;37.50;;;;;;5051556;28;20447;-62
2023/02/22 04:59:58;;;;;;;10.00;7.10;;;21.70;37.50;;;;;;5051284;28;20041;-62
2023/02/22 05:02:25;;;;;;;8.13;6.50;;;21.70;37.50;;;;;;5050548;28;20049;-62
2023/02/22 05:04:52;;;;;;;10.15;8.20;;;21.70;37.50;;;;;;5051788;28;20057;-62
2023/02/22 05:07:19;;;;;;;9.57;7.32;;;21.70;37.50;;;;;;5050998;28;20124;-62
2023/02/22 05:09:46;;;;;;;10.48;7.18;;;21.70;37.50;;;;;;5051550;28;20052;-62
2023/02/22 05:12:14;;;;;;;8.07;6.88;;;21.70;37.50;;;;;;5054205;28;20053;-62
2023/02/22 05:14:41;;;;;;;10.32;7.53;;;21.70;37.50;;;;;;5054808;28;20059;-62
2023/02/22 05:17:08;;;;;;;9.73;6.97;;;21.70;37.50;;;;;;5036236;28;20053;-62
2023/02/22 05:19:36;;;;;;;8.60;6.18;;;21.70;37.50;;;;;;5035428;28;20084;-62
2023/02/22 05:22:04;;;;;;;8.43;6.60;;;21.70;37.50;;;;;;5041201;28;20056;-62
2023/02/22 05:24:31;;;;;;;11.45;7.47;;;21.70;37.50;;;;;;5057776;28;20053;-61
2023/02/22 05:26:59;;;;;;;7.43;6.15;;;21.70;37.50;;;;;;5050537;28;20095;-62
2023/02/22 05:29:26;;;;;;;9.10;6.57;;;21.70;37.50;;;;;;5054784;28;20049;-62
2023/02/22 05:31:53;;;;;;;7.13;6.03;;;21.70;37.50;;;;;;5055086;28;20132;-61
2023/02/22 05:34:20;;;;;;;7.10;5.82;;;21.70;37.50;;;;;;5055196;28;20059;-62
2023/02/22 05:36:47;;;;;;;9.30;6.57;;;21.70;37.40;;;;;;5053038;28;20037;-62
2023/02/22 05:39:15;;;;;;;9.48;6.97;;;21.70;37.20;;;;;;5033321;28;20572;-62
2023/02/22 05:41:42;;;;;;;9.25;6.85;;;21.70;37.00;;;;;;5042177;28;20049;-62
2023/02/22 05:44:09;;;;;;;9.65;7.10;;;21.60;36.90;;;;;;5054901;28;20416;-62
2023/02/22 05:46:36;;;;;;;9.50;7.18;;;21.70;36.90;;;;;;5053938;28;20049;-62
2023/02/22 05:49:03;;;;;;;10.65;6.97;;;21.60;36.90;;;;;;5052799;28;20128;-62
2023/02/22 05:51:30;;;;;;;8.80;6.35;;;21.60;36.80;;;;;;5054443;28;20081;-62
2023/02/22 05:53:58;;;;;;;9.48;7.07;;;21.60;36.80;;;;;;5053965;28;20162;-61
2023/02/22 05:56:27;;;;;;;8.48;6.50;;;21.60;36.80;;;;;;5053433;28;20045;-62
2023/02/22 05:58:54;;;;;;;11.63;6.57;;;21.60;36.70;;;;;;5054155;28;20059;-61
2023/02/22 06:01:22;;;;;;;8.43;6.30;;;21.60;36.60;;;;;;5053562;28;20067;-62
2023/02/22 06:03:50;;;;;;;7.40;6.10;;;21.60;36.50;;;;;;5053958;28;20072;-62
2023/02/22 06:06:19;;;;;;;7.43;6.03;;;21.60;36.50;;;;;;5052839;28;20401;-62
2023/02/22 06:08:48;;;;;;;9.07;6.18;;;21.70;36.50;;;;;;5052730;28;20562;-61
2023/02/22 06:11:15;;;;;;;8.52;5.90;;;21.70;36.40;;;;;;5048176;28;20044;-62
2023/02/22 06:13:50;;;;;;;11.88;6.50;;;21.70;36.30;;;;;;5039068;28;20053;-61
2023/02/22 06:16:22;;;;;;;7.18;6.10;;;21.80;36.30;;;;;;5052754;28;20098;-62
2023/02/22 06:18:49;;;;;;;8.45;6.50;;;21.80;36.20;;;;;;5053733;28;20048;-61
2023/02/22 06:21:17;;;;;;;6.68;5.38;;;21.80;36.10;;;;;;5053002;28;20768;-62
2023/02/22 06:23:44;;;;;;;8.90;5.43;;;21.90;36.10;;;;;;5041295;28;20053;-62
2023/02/22 06:26:14;;;;;;;8.50;6.25;;;21.90;36.00;;;;;;5042672;28;20505;-62
2023/02/22 06:28:41;;;;;;;7.85;5.68;;;21.90;35.90;;;;;;5037078;28;20057;-58
2023/02/22 06:31:08;;;;;;;8.38;5.50;;;22.00;35.90;;;;;;5036604;28;20151;-62
2023/02/22 06:33:35;;;;;;;9.57;6.05;;;22.00;35.90;;;;;;5046726;28;20152;-62
2023/02/22 06:36:04;;;;;;;7.65;6.13;;;22.00;35.90;;;;;;5041024;28;20131;-60
2023/02/22 06:38:32;;;;;;;9.05;6.13;;;22.10;35.90;;;;;;5039635;28;20091;-61
2023/02/22 06:40:59;;;;;;;8.35;6.07;;;22.10;35.80;;;;;;5043647;28;20051;-61
2023/02/22 06:43:26;;;;;;;7.95;6.45;;;22.10;35.80;;;;;;5044531;28;20088;-60
2023/02/22 06:45:53;;;;;;;7.90;6.28;;;22.20;35.70;;;;;;5043196;28;20076;-62
2023/02/22 06:48:20;;;;;;;10.38;7.05;;;22.30;35.70;;;;;;5044282;28;20410;-62
2023/02/22 06:50:48;;;;;;;11.05;6.32;;;22.30;35.60;;;;;;5037600;28;20041;-64
2023/02/22 06:53:15;;;;;;;8.80;6.85;;;22.40;35.80;;;;;;5041412;28;20045;-63
2023/02/22 06:55:42;;;;;;;10.60;6.40;;;22.40;36.00;;;;;;5034323;28;20139;-63
2023/02/22 06:58:09;;;;;;;9.85;6.57;;;22.40;36.10;;;;;;5038775;28;20476;-62
2023/02/22 07:00:36;;;;;;;8.88;6.47;;;22.50;36.20;;;;;;5040300;28;20889;-62
2023/02/22 07:03:04;;;;;;;12.73;6.47;;;22.50;36.30;;;;;;5035346;28;20063;-60
2023/02/22 07:05:31;;;;;;;8.55;6.75;;;22.50;36.30;;;;;;5041053;28;20154;-61
2023/02/22 07:08:04;;;;;;;11.20;7.20;;;22.60;36.20;;;;;;5040503;28;20052;-65
2023/02/22 07:10:33;;;;;;;8.75;6.80;;;22.60;36.20;;;;;;5040300;28;20049;-64
2023/02/22 07:13:01;;;;;;;12.02;8.13;;;22.70;36.50;;;;;;5044962;28;20056;-62
2023/02/22 07:15:29;;;;;;;10.85;8.07;;;22.70;36.50;;;;;;5039746;28;20049;-61
2023/02/22 07:17:57;;;;;;;11.60;9.02;;;22.80;36.60;;;;;;5040440;28;20131;-63
2023/02/22 07:20:26;;;;;;;13.05;8.40;;;22.80;36.60;;;;;;5040962;28;20176;-64
2023/02/22 07:22:54;;;;;;;17.20;9.93;;;22.90;36.60;;;;;;5042366;28;20760;-64
2023/02/22 07:25:22;;;;;;;11.52;8.55;;;22.90;36.40;;;;;;5039064;28;20084;-62
2023/02/22 07:27:51;;;;;;;12.18;9.05;;;23.00;36.30;;;;;;5039824;28;20064;-62
2023/02/22 07:30:29;;;;;;;11.65;8.43;;;23.00;35.90;;;;;;5038774;28;20055;-65
2023/02/22 07:32:59;;;;;;;10.45;8.07;;;23.00;35.90;;;;;;5039716;28;20164;-62
2023/02/22 07:35:29;;;;;;;12.18;8.82;;;23.10;36.10;;;;;;5043670;28;20037;-66
2023/02/22 07:37:57;;;;;;;17.55;9.35;;;23.10;36.10;;;;;;5037511;28;20045;-65
2023/02/22 07:40:25;;;;;;;12.65;8.38;;;23.20;36.20;;;;;;5043430;28;20080;-61
2023/02/22 07:42:59;;;;;;;12.70;9.27;;;23.20;36.10;;;;;;5046583;28;20134;-61
2023/02/22 07:45:29;;;;;;;15.15;8.52;;;23.30;36.10;;;;;;5043663;28;20040;-63
2023/02/22 07:47:57;;;;;;;12.65;9.02;;;23.30;36.10;;;;;;5043177;28;22424;-63
2023/02/22 07:50:25;;;;;;;13.38;9.48;;;23.40;36.20;;;;;;5044274;28;20080;-64
2023/02/22 07:52:55;;;;;;;13.73;9.65;;;23.40;36.20;;;;;;5039608;28;20057;-63
2023/02/22 07:55:25;;;;;;;14.90;10.02;;;23.50;36.20;;;;;;5042594;28;20037;-63
2023/02/22 07:57:53;;;;;;;;;;;23.50;36.20;;;;;;5044483;28;20131;-61
2023/02/22 08:00:39;;;;;;;19.20;11.75;;;23.50;36.10;;;;;;5038668;28;19921;-62
2023/02/22 08:03:09;;;;;;;16.75;10.77;;;23.60;36.30;;;;;;5044836;28;20048;-67
2023/02/22 08:05:39;;;;;;;19.35;11.98;;;23.60;36.20;;;;;;5045091;28;20079;-66
2023/02/22 08:08:07;;;;;;;20.60;11.90;;;23.70;36.20;;;;;;5040309;28;20148;-70
2023/02/22 08:10:34;;;;;;;17.63;11.40;;;23.70;36.10;;;;;;5044855;28;20063;-66
2023/02/22 08:13:03;;;;;;;18.25;12.18;;;23.70;36.00;;;;;;5044824;28;20055;-60
2023/02/22 08:15:34;;;;;;;24.48;13.48;;;23.80;35.80;;;;;;5040434;28;20068;-63
2023/02/22 08:18:02;;;;;;;;;;;23.80;35.60;;;;;;5046975;28;20168;-65
2023/02/22 08:20:29;;;;;;;18.02;13.13;;;23.90;35.40;;;;;;5043741;28;19935;-65
2023/02/22 08:22:57;;;;;;;17.38;11.85;;;23.90;35.30;;;;;;5046784;28;20076;-64
2023/02/22 08:25:27;;;;;;;17.00;12.55;;;23.90;35.20;;;;;;5045698;28;20083;-64
2023/02/22 08:28:07;;;;;;;16.58;11.80;;;23.90;35.20;;;;;;5048299;28;20548;-62
2023/02/22 08:30:35;;;;;;;19.45;13.75;;;24.00;35.20;;;;;;5044111;28;20049;-66
2023/02/22 08:33:06;;;;;;;17.13;12.95;;;24.00;35.20;;;;;;5048973;28;20053;-62
2023/02/22 08:35:33;;;;;;;22.65;13.10;;;24.00;35.20;;;;;;5046471;28;20132;-62
2023/02/22 08:38:03;;;;;;;20.17;13.82;;;24.10;35.80;;;;;;5044036;28;20576;-62
2023/02/22 08:40:33;;;;;;;20.30;13.73;;;24.10;35.20;;;;;;5041779;28;20489;-65
2023/02/22 08:43:00;;;;;;;20.95;13.32;;;24.10;35.10;;;;;;5042521;28;20571;-62
2023/02/22 08:45:28;;;;;;;21.75;14.73;;;24.10;35.00;;;;;;5043088;28;20060;-64
2023/02/22 08:47:56;;;;;;;22.08;14.48;;;24.20;35.10;;;;;;5044304;28;20076;-63
2023/02/22 08:50:26;;;;;;;21.75;14.45;;;24.20;35.10;;;;;;5047192;28;20045;-61
2023/02/22 08:52:55;;;;;;;;;;;24.20;35.10;;;;;;5048519;28;20049;-63
2023/02/22 08:55:24;;;;;;;22.00;14.18;;;24.30;35.20;;;;;;5043382;28;20022;-62
2023/02/22 08:57:51;;;;;;;20.10;12.85;;;24.30;35.20;;;;;;5043284;28;20045;-61
2023/02/22 09:00:23;;;;;;;24.23;13.27;;;24.30;35.40;;;;;;5047344;28;20098;-63
2023/02/22 09:02:51;;;;;;;22.30;12.93;;;24.40;35.80;;;;;;5045738;28;20513;-62
2023/02/22 09:05:20;;;;;;;18.98;13.27;;;24.40;36.00;;;;;;5048054;28;20053;-63
2023/02/22 09:07:47;;;;;;;19.77;12.15;;;24.40;35.90;;;;;;5052010;28;20056;-66
2023/02/22 09:10:23;;;;;;;17.67;12.20;;;24.50;36.00;;;;;;5049451;28;20047;-65
2023/02/22 09:12:51;;;;;;;16.42;11.02;;;24.50;36.00;;;;;;5051844;28;20388;-65
2023/02/22 09:15:18;;;;;;;16.73;11.50;;;24.50;36.00;;;;;;5048726;28;20059;-61
2023/02/22 09:17:45;;;;;;;18.13;11.35;;;24.50;36.00;;;;;;5052381;28;20136;-67
2023/02/22 09:20:16;;;;;;;14.57;10.60;;;24.60;36.10;;;;;;5044064;28;20045;-65
2023/02/22 09:22:48;;;;;;;15.98;9.35;;;24.60;36.10;;;;;;5046451;28;20055;-64
2023/02/22 09:25:16;;;;;;;19.33;10.43;;;24.70;36.60;;;;;;5043916;28;20053;-64
2023/02/22 09:27:47;;;;;;;17.08;9.82;;;24.70;36.00;;;;;;5045723;28;20064;-63
2023/02/22 09:30:19;;;;;;;20.55;10.60;;;24.70;35.80;;;;;;5043845;28;20140;-63
2023/02/22 09:32:46;;;;;;;15.48;9.70;;;24.70;35.60;;;;;;5041618;28;20092;-65
2023/02/22 09:35:13;;;;;;;12.73;8.30;;;24.70;35.30;;;;;;5042615;28;20483;-66
2023/02/22 09:37:43;;;;;;;15.52;9.32;;;24.80;35.40;;;;;;5043210;28;20150;-63
2023/02/22 09:40:23;;;;;;;13.52;8.75;;;24.80;35.50;;;;;;5042051;28;20068;-66
2023/02/22 09:43:02;;;;;;;15.52;8.48;;;24.80;35.50;;;;;;5039884;28;20135;-64
2023/02/22 09:45:51;;;;;;;12.13;7.93;;;24.90;35.50;;;;;;5042181;28;20180;-69
2023/02/22 09:48:19;;;;;;;11.65;7.95;;;24.80;35.30;;;;;;5043386;28;20049;-63
2023/02/22 09:50:52;;;;;;;16.27;9.38;;;24.90;35.40;;;;;;5045259;28;20147;-70
2023/02/22 09:53:29;;;;;;;11.07;8.00;;;24.90;35.30;;;;;;5043464;28;20064;-63
2023/02/22 09:56:03;;;;;;;11.18;7.78;;;24.90;35.90;;;;;;5044133;28;20045;-64
2023/02/22 09:58:34;;;;;;;12.13;7.85;;;24.90;35.30;;;;;;5040679;28;20051;-64
2023/02/22 10:01:25;;;;;;;12.45;8.02;;;25.00;35.20;;;;;;5043464;28;20040;-61
2023/02/22 10:04:21;;;;;;;13.65;8.50;;;25.00;35.20;;;;;;5041766;28;20101;-67
2023/02/22 10:07:17;;;;;;;24.67;8.98;;;25.00;35.30;;;;;;5044990;28;20053;-65
2023/02/22 10:09:47;;;;;;;13.10;8.20;;;25.10;35.30;;;;;;5046425;28;20110;-65
2023/02/22 10:12:37;;;;;;;12.13;7.72;;;25.10;35.10;;;;;;5045475;28;20053;-65
2023/02/22 10:15:40;;;;;;;13.18;7.47;;;25.10;35.00;;;;;;5042275;28;20094;-68
2023/02/22 10:18:53;;;;;;;14.18;7.97;;;25.10;34.80;;;;;;5045103;28;20059;-67
2023/02/22 10:21:48;;;;;;;12.63;7.93;;;25.10;34.90;;;;;;5042652;28;20067;-64
2023/02/22 10:24:47;;;;;;;12.38;7.78;;;25.10;34.90;;;;;;5041892;28;20125;-61
2023/02/22 10:27:21;;;;;;;12.48;7.85;;;25.10;34.90;;;;;;5044790;28;20041;-64
2023/02/22 10:29:53;;;;;;;9.18;6.25;;;25.10;34.80;;;;;;5046566;28;20048;-64
2023/02/22 10:32:30;;;;;;;11.38;7.35;;;25.10;34.90;;;;;;5047696;28;20051;-64
2023/02/22 10:34:59;;;;;;;14.57;8.98;;;25.20;34.90;;;;;;5045643;28;20417;-62
2023/02/22 10:37:31;;;;;;;15.63;8.48;;;25.20;34.90;;;;;;5045784;28;20532;-63
2023/02/22 10:40:16;;;;;;;12.98;8.27;;;25.20;34.90;;;;;;5047828;28;20063;-64
2023/02/22 10:42:43;;;;;;;12.82;7.50;;;25.20;34.80;;;;;;5045307;28;20049;-67
2023/02/22 10:45:28;;;;;;;11.15;7.10;;;25.20;34.70;;;;;;5046716;28;20114;-64
2023/02/22 10:47:59;;;;;;;11.60;7.55;;;25.30;34.70;;;;;;5042953;28;20484;-61
2023/02/22 10:50:30;;;;;;;10.23;6.43;;;25.30;34.60;;;;;;5045015;28;20136;-63
2023/02/22 10:52:57;;;;;;;10.23;7.05;;;25.30;34.40;;;;;;5043770;28;20045;-63
2023/02/22 10:55:26;;;;;;;9.73;6.85;;;25.30;34.20;;;;;;5048995;28;20051;-63
2023/02/22 10:58:03;;;;;;;11.38;6.38;;;25.30;34.10;;;;;;5047000;28;20132;-63
2023/02/22 11:00:36;;;;;;;12.32;6.57;;;25.30;34.00;;;;;;5044701;28;20041;-62
2023/02/22 11:03:20;;;;;;;12.00;5.95;;;25.30;33.90;;;;;;5048539;28;20135;-64
2023/02/22 11:05:48;;;;;;;8.50;5.10;;;25.30;33.90;;;;;;5048712;28;20152;-66
2023/02/22 11:08:31;;;;;;;10.85;5.88;;;25.30;33.90;;;;;;5045496;28;20045;-63
2023/02/22 11:11:17;;;;;;;8.77;4.93;;;25.40;34.50;;;;;;5045427;28;20072;-64
2023/02/22 11:13:54;;;;;;;7.03;5.35;;;25.30;33.80;;;;;;5039891;28;20519;-66
2023/02/22 11:16:49;;;;;;;7.30;5.05;;;25.40;33.70;;;;;;5046043;28;20111;-62
2023/02/22 11:19:31;;;;;;;9.00;4.93;;;25.40;33.70;;;;;;5045152;28;20484;-62
2023/02/22 11:22:21;;;;;;;6.43;4.68;;;25.40;33.60;;;;;;5045881;28;20136;-61
2023/02/22 11:24:59;;;;;;;6.35;4.60;;;25.40;31.80;;;;;;5042174;28;20489;-60
2023/02/22 11:27:40;;;;;;;6.05;4.20;;;25.30;32.70;;;;;;5044025;28;20045;-59
2023/02/22 11:30:16;;;;;;;;;;;25.30;33.00;;;;;;5047547;28;20127;-60
2023/02/22 11:32:47;;;;;;;6.43;4.20;;;25.20;32.90;;;;;;5043152;28;20024;-60
2023/02/22 11:35:31;;;;;;;5.75;4.03;;;25.20;33.10;;;;;;5040850;28;20876;-62
2023/02/22 11:38:20;;;;;;;5.13;3.60;;;25.20;33.30;;;;;;5040710;28;20045;-61
2023/02/22 11:41:13;;;;;;;5.70;3.50;;;25.20;32.60;;;;;;5045719;28;20044;-61
2023/02/22 11:43:44;;;;;;;4.50;3.53;;;25.20;33.00;;;;;;5042837;28;20463;-61
2023/02/22 11:46:20;;;;;;;4.15;3.40;;;25.20;33.20;;;;;;5025601;28;20059;-65
2023/02/22 11:49:05;;;;;;;5.50;3.33;;;25.20;33.30;;;;;;5039611;28;20049;-62
2023/02/22 11:51:57;;;;;;;5.00;3.53;;;25.20;33.10;;;;;;5041282;28;20100;-62
2023/02/22 11:54:51;;;;;;;3.88;3.45;;;25.20;33.10;;;;;;5040251;28;20045;-62
2023/02/22 11:57:35;;;;;;;3.67;2.70;;;25.30;33.20;;;;;;5039116;28;20136;-62
2023/02/22 12:00:25;;;;;;;5.15;2.85;;;25.30;33.20;;;;;;5039272;28;20517;-63
2023/02/22 12:03:18;;;;;;;3.92;2.72;;;25.30;33.10;;;;;;5039185;28;20049;-63
2023/02/22 12:06:23;;;;;;;4.95;2.92;;;25.30;33.00;;;;;;5040468;28;20486;-61
2023/02/22 12:09:31;;;;;;;3.75;2.70;;;25.30;33.00;;;;;;5040517;28;20049;-63
2023/02/22 12:12:23;;;;;;;4.05;3.03;;;25.40;33.00;;;;;;5042340;28;20044;-62
2023/02/22 12:15:17;;;;;;;2.70;2.50;;;25.40;33.00;;;;;;5044641;28;20140;-61
2023/02/22 12:18:12;;;;;;;3.58;2.72;;;25.40;33.00;;;;;;5045606;28;20049;-63
2023/02/22 12:20:52;;;;;;;3.58;2.67;;;25.40;32.90;;;;;;5047073;28;20049;-62
2023/02/22 12:23:49;;;;;;;5.10;2.50;;;25.40;32.90;;;;;;5045759;28;20079;-62
2023/02/22 12:26:24;;;;;;;3.78;2.70;;;25.40;33.00;;;;;;5045630;28;20132;-64
2023/02/22 12:29:03;;;;;;;2.40;2.15;;;25.40;32.90;;;;;;5045936;28;20272;-62
2023/02/22 12:31:56;;;;;;;2.67;2.17;;;25.40;33.00;;;;;;5047342;28;20129;-62
2023/02/22 12:34:42;;;;;;;2.53;2.25;;;25.50;33.20;;;;;;5044278;28;20440;-62
2023/02/22 12:37:26;;;;;;;2.35;2.05;;;25.50;33.30;;;;;;5044879;28;20100;-61
2023/02/22 12:40:22;;;;;;;4.70;2.60;;;25.50;33.30;;;;;;5044702;28;20060;-62
2023/02/22 12:43:04;;;;;;;6.00;2.70;;;25.50;33.20;;;;;;5045552;28;20053;-62
2023/02/22 12:45:59;;;;;;;4.10;2.70;;;25.50;33.10;;;;;;5048147;28;20049;-63
2023/02/22 12:48:53;;;;;;;4.85;3.17;;;25.50;33.00;;;;;;5045196;28;20079;-62
2023/02/22 12:51:32;;;;;;;2.50;2.28;;;25.50;33.00;;;;;;5047118;28;20124;-64
2023/02/22 12:54:32;;;;;;;2.85;2.00;;;25.50;33.00;;;;;;5048734;28;20458;-65
2023/02/22 12:57:17;;;;;;;7.28;2.70;;;25.50;32.90;;;;;;5050977;28;20048;-62
2023/02/22 13:00:05;;;;;;;2.90;2.30;;;25.50;33.00;;;;;;5046832;28;20063;-63
2023/02/22 13:03:03;;;;;;;4.32;2.90;;;25.50;32.90;;;;;;5047335;28;20045;-63
2023/02/22 13:05:35;;;;;;;2.70;2.13;;;25.50;32.90;;;;;;5044891;28;20055;-64
2023/02/22 13:08:32;;;;;;;2.92;2.08;;;25.50;32.90;;;;;;5050005;28;20068;-64
2023/02/22 13:11:15;;;;;;;3.13;2.45;;;25.50;32.90;;;;;;5046630;28;20044;-63
2023/02/22 13:14:09;;;;;;;4.60;2.45;;;25.50;33.00;;;;;;5046876;28;20183;-63
2023/02/22 13:16:57;;;;;;;5.32;2.22;;;25.50;33.00;;;;;;5046451;28;20056;-64